createdAt,value
2019-02-22T00:02:25.263Z,33.50
2019-02-22T00:04:54.671Z,35.83
2019-02-22T00:07:24.101Z,35.50
2019-02-22T00:09:53.747Z,35.15
2019-02-22T00:12:23.917Z,33.23
2019-02-22T00:14:53.343Z,35.73
2019-02-22T00:17:24.281Z,34.60
2019-02-22T00:19:53.663Z,34.83
2019-02-22T00:22:23.149Z,33.88
2019-02-22T00:24:52.562Z,30.90
2019-02-22T00:27:24.383Z,32.30
2019-02-22T00:29:53.796Z,32.47
2019-02-22T00:32:23.313Z,31.83
2019-02-22T00:34:52.776Z,32.67
2019-02-22T00:37:22.581Z,32.40
2019-02-22T00:39:51.959Z,33.23
2019-02-22T00:42:21.435Z,32.20
2019-02-22T00:44:50.804Z,35.27
2019-02-22T00:47:20.192Z,35.70
2019-02-22T00:49:51.217Z,34.85
2019-02-22T00:52:20.644Z,34.67
2019-02-22T00:54:50.055Z,32.78
2019-02-22T00:57:19.554Z,34.40
2019-02-22T00:59:49.168Z,32.88
2019-02-22T01:02:19.002Z,36.33
2019-02-22T01:04:49.365Z,36.90
2019-02-22T01:07:19.369Z,38.63
2019-02-22T01:09:48.928Z,39.00
2019-02-22T01:12:18.562Z,37.83
2019-02-22T01:14:48.350Z,38.77
2019-02-22T01:17:18.093Z,38.33
2019-02-22T01:19:49.632Z,39.87
2019-02-22T01:22:19.085Z,39.43
2019-02-22T01:24:48.533Z,38.48
2019-02-22T01:27:17.933Z,38.87
2019-02-22T01:29:47.337Z,41.47
2019-02-22T01:32:18.258Z,39.83
2019-02-22T01:34:47.699Z,39.33
2019-02-22T01:37:17.538Z,40.58
2019-02-22T01:39:46.970Z,40.70
2019-02-22T01:42:16.939Z,39.15
2019-02-22T01:44:48.877Z,40.33
2019-02-22T01:47:19.009Z,41.37
2019-02-22T01:49:48.522Z,42.37
2019-02-22T01:52:20.795Z,41.43
2019-02-22T01:54:50.587Z,40.63
2019-02-22T01:57:19.983Z,39.43
2019-02-22T01:59:49.384Z,41.40
2019-02-22T02:02:18.832Z,40.57
2019-02-22T02:04:49.114Z,41.70
2019-02-22T02:07:18.593Z,39.47
2019-02-22T02:09:51.051Z,40.77
2019-02-22T02:12:24.620Z,41.87
2019-02-22T02:14:54.163Z,39.90
2019-02-22T02:17:23.558Z,40.40
2019-02-22T02:19:54.980Z,39.63
2019-02-22T02:22:24.189Z,38.80
2019-02-22T02:24:55.220Z,39.87
2019-02-22T02:27:24.760Z,38.37
2019-02-22T02:29:54.186Z,39.80
2019-02-22T02:32:28.265Z,40.27
2019-02-22T02:34:57.741Z,41.10
2019-02-22T02:37:27.152Z,39.63
2019-02-22T02:39:56.588Z,40.53
2019-02-22T02:42:26.011Z,38.63
2019-02-22T02:44:55.420Z,39.73
2019-02-22T02:47:25.085Z,40.10
2019-02-22T02:49:54.505Z,39.57
2019-02-22T02:52:26.257Z,37.80
2019-02-22T02:54:55.921Z,37.13
2019-02-22T02:57:25.329Z,35.65
2019-02-22T02:59:54.800Z,37.50
2019-02-22T03:02:26.059Z,37.90
2019-02-22T03:04:55.565Z,35.97
2019-02-22T03:07:26.823Z,37.67
2019-02-22T03:09:56.259Z,35.10
2019-02-22T03:12:26.085Z,35.92
2019-02-22T03:14:56.047Z,36.88
2019-02-22T03:17:26.075Z,35.78
2019-02-22T03:19:56.482Z,35.58
2019-02-22T03:22:26.071Z,36.08
2019-02-22T03:24:56.478Z,35.98
2019-02-22T03:27:25.943Z,34.53
2019-02-22T03:29:55.752Z,34.83
2019-02-22T03:32:25.311Z,35.93
2019-02-22T03:34:57.648Z,35.27
2019-02-22T03:37:27.148Z,37.73
2019-02-22T03:39:56.624Z,33.20
2019-02-22T03:42:26.013Z,34.53
2019-02-22T03:44:55.644Z,34.83
2019-02-22T03:47:25.158Z,35.30
2019-02-22T03:49:54.757Z,35.43
2019-02-22T03:52:25.811Z,36.03
2019-02-22T03:54:55.586Z,36.63
2019-02-22T03:57:25.110Z,36.50
2019-02-22T03:59:54.624Z,35.03
2019-02-22T04:02:24.259Z,38.50
2019-02-22T04:04:53.811Z,37.00
2019-02-22T04:07:23.213Z,36.30
2019-02-22T04:09:58.367Z,35.20
2019-02-22T04:12:25.738Z,36.53
2019-02-22T04:14:55.176Z,38.00
2019-02-22T04:17:24.601Z,38.10
2019-02-22T04:19:54.032Z,39.13
2019-02-22T04:22:23.515Z,38.90
2019-02-22T04:24:52.933Z,41.27
2019-02-22T04:27:22.458Z,38.63
2019-02-22T04:29:52.312Z,39.67
2019-02-22T04:32:26.968Z,40.38
2019-02-22T04:35:00.584Z,38.13
2019-02-22T04:37:36.231Z,41.37
2019-02-22T04:40:11.122Z,39.87
2019-02-22T04:42:50.317Z,41.15
2019-02-22T04:45:24.361Z,39.60
2019-02-22T04:47:58.761Z,41.23
2019-02-22T04:50:31.972Z,39.23
2019-02-22T04:53:04.088Z,41.90
2019-02-22T04:55:40.264Z,43.90
2019-02-22T04:58:10.225Z,44.93
2019-02-22T05:00:42.960Z,42.50
2019-02-22T05:03:14.795Z,44.88
2019-02-22T05:05:44.858Z,43.97
2019-02-22T05:08:14.626Z,44.47
2019-02-22T05:10:44.560Z,43.67
2019-02-22T05:13:13.993Z,42.67
2019-02-22T05:15:43.747Z,41.80
2019-02-22T05:18:13.366Z,45.07
2019-02-22T05:20:43.077Z,45.50
2019-02-22T05:23:12.787Z,42.05
2019-02-22T05:25:42.142Z,44.47
2019-02-22T05:28:11.651Z,45.17
2019-02-22T05:30:41.379Z,44.97
2019-02-22T05:33:11.161Z,44.70
2019-02-22T05:35:40.868Z,42.20
2019-02-22T05:38:10.280Z,46.93
2019-02-22T05:40:39.676Z,44.63
2019-02-22T05:43:09.162Z,44.70
2019-02-22T05:45:38.653Z,46.73
2019-02-22T05:48:08.144Z,45.83
2019-02-22T05:50:37.755Z,46.80
2019-02-22T05:53:07.328Z,46.37
2019-02-22T05:55:36.768Z,46.27
2019-02-22T05:58:06.363Z,44.57
2019-02-22T06:00:36.838Z,45.77
2019-02-22T06:03:06.349Z,44.70
2019-02-22T06:05:36.005Z,43.43
2019-02-22T06:08:09.064Z,43.77
2019-02-22T06:10:39.015Z,41.80
2019-02-22T06:13:09.489Z,42.73
2019-02-22T06:15:39.490Z,40.37
2019-02-22T06:18:12.205Z,42.63
2019-02-22T06:20:55.785Z,42.20
2019-02-22T06:23:25.709Z,41.30
2019-02-22T06:25:55.275Z,40.03
2019-02-22T06:28:28.034Z,42.67
2019-02-22T06:31:21.942Z,41.15
2019-02-22T06:33:41.287Z,41.42
2019-02-22T06:36:12.307Z,40.93
2019-02-22T06:38:46.823Z,41.17
2019-02-22T06:41:16.435Z,41.63
2019-02-22T06:43:46.474Z,39.87
2019-02-22T06:46:18.476Z,40.90
2019-02-22T06:48:50.908Z,39.17
2019-02-22T06:51:21.967Z,37.13
2019-02-22T06:53:52.242Z,42.23
2019-02-22T06:56:26.772Z,42.00
2019-02-22T06:58:56.835Z,40.50
2019-02-22T07:01:27.455Z,35.08
2019-02-22T07:03:57.235Z,38.33
2019-02-22T07:06:27.145Z,35.73
2019-02-22T07:09:10.607Z,35.37
2019-02-22T07:11:41.922Z,36.10
2019-02-22T07:14:12.197Z,37.23
2019-02-22T07:16:43.734Z,36.60
2019-02-22T07:19:13.958Z,36.37
2019-02-22T07:21:52.698Z,37.15
2019-02-22T07:24:18.154Z,37.73
2019-02-22T07:26:52.746Z,36.30
2019-02-22T07:29:24.423Z,36.57
2019-02-22T07:32:05.438Z,36.53
2019-02-22T07:34:28.643Z,33.43
2019-02-22T07:36:58.356Z,38.30
2019-02-22T07:39:28.540Z,36.13
2019-02-22T07:41:58.738Z,36.07
2019-02-22T07:44:28.580Z,37.03
2019-02-22T07:47:00.783Z,36.23
2019-02-22T07:49:30.478Z,36.57
2019-02-22T07:52:00.083Z,36.33
2019-02-22T07:54:31.072Z,33.93
2019-02-22T07:57:02.887Z,36.93
2019-02-22T07:59:32.520Z,36.37
2019-02-22T08:02:02.376Z,38.50
2019-02-22T08:04:32.219Z,36.50
2019-02-22T08:07:01.962Z,35.87
2019-02-22T08:09:35.454Z,36.87
2019-02-22T08:12:05.280Z,36.77
2019-02-22T08:14:36.344Z,36.33
2019-02-22T08:17:06.353Z,38.53
2019-02-22T08:19:37.687Z,33.37
2019-02-22T08:22:07.711Z,34.90
2019-02-22T08:24:37.786Z,36.07
2019-02-22T08:27:07.741Z,33.83
2019-02-22T08:29:51.811Z,35.40
2019-02-22T08:32:22.359Z,34.38
2019-02-22T08:34:52.122Z,37.27
2019-02-22T08:37:26.014Z,36.17
2019-02-22T08:39:58.836Z,36.00
2019-02-22T08:42:27.325Z,34.37
2019-02-22T08:44:58.268Z,34.97
2019-02-22T08:47:28.168Z,36.27
2019-02-22T08:49:58.094Z,35.87
2019-02-22T08:52:28.149Z,35.20
2019-02-22T08:54:57.855Z,33.75
2019-02-22T08:57:27.471Z,32.93
2019-02-22T08:59:57.231Z,33.20
2019-02-22T09:02:27.227Z,33.33
2019-02-22T09:04:56.917Z,34.20
2019-02-22T09:07:28.149Z,31.33
2019-02-22T09:10:06.183Z,34.33
2019-02-22T09:12:38.162Z,32.50
2019-02-22T09:15:12.102Z,33.00
2019-02-22T09:17:41.916Z,33.20
2019-02-22T09:20:13.535Z,30.87
2019-02-22T09:22:46.104Z,32.43
2019-02-22T09:25:15.861Z,33.97
2019-02-22T09:27:47.563Z,33.83
2019-02-22T09:30:17.402Z,34.83
2019-02-22T09:32:48.454Z,31.77
2019-02-22T09:35:18.392Z,34.17
2019-02-22T09:37:48.412Z,33.40
2019-02-22T09:40:17.954Z,33.05
2019-02-22T09:42:52.657Z,35.38
2019-02-22T09:45:24.475Z,33.07
2019-02-22T09:47:56.645Z,33.93
2019-02-22T09:50:28.317Z,30.73
2019-02-22T09:52:58.789Z,32.48
2019-02-22T09:55:28.891Z,33.28
2019-02-22T09:57:59.965Z,32.93
2019-02-22T10:00:30.024Z,31.37
2019-02-22T10:03:00.521Z,31.07
2019-02-22T10:05:31.032Z,29.92
2019-02-22T10:08:00.647Z,30.53
2019-02-22T10:10:30.674Z,31.13
2019-02-22T10:13:02.559Z,30.73
2019-02-22T10:15:34.325Z,29.48
2019-02-22T10:18:04.133Z,26.93
2019-02-22T10:20:34.775Z,27.27
2019-02-22T10:23:04.880Z,28.13
2019-02-22T10:25:34.716Z,28.47
2019-02-22T10:28:16.902Z,29.67
2019-02-22T10:30:38.873Z,30.40
2019-02-22T10:33:10.256Z,28.87
2019-02-22T10:35:39.979Z,29.90
2019-02-22T10:38:14.780Z,29.67
2019-02-22T10:40:44.432Z,27.70
2019-02-22T10:43:14.896Z,27.75
2019-02-22T10:45:44.406Z,28.93
2019-02-22T10:48:15.900Z,30.50
2019-02-22T10:50:45.662Z,28.57
2019-02-22T10:53:17.106Z,27.07
2019-02-22T10:55:47.610Z,28.43
2019-02-22T10:58:17.950Z,27.47
2019-02-22T11:00:47.730Z,28.15
2019-02-22T11:03:17.444Z,30.13
2019-02-22T11:05:47.525Z,30.57
2019-02-22T11:08:18.778Z,29.97
2019-02-22T11:10:55.260Z,31.47
2019-02-22T11:13:28.001Z,32.33
2019-02-22T11:15:57.487Z,33.42
2019-02-22T11:18:27.884Z,32.37
2019-02-22T11:20:58.485Z,34.50
2019-02-22T11:23:28.398Z,32.47
2019-02-22T11:25:58.388Z,31.67
2019-02-22T11:28:29.900Z,32.40
2019-02-22T11:31:00.230Z,31.52
2019-02-22T11:33:31.388Z,33.03
2019-02-22T11:36:26.660Z,34.93
2019-02-22T11:38:58.747Z,33.27
2019-02-22T11:41:35.694Z,32.73
2019-02-22T11:44:07.038Z,29.93
2019-02-22T11:46:46.267Z,28.67
2019-02-22T11:49:22.054Z,28.83
2019-02-22T11:51:56.068Z,29.07
2019-02-22T11:54:42.268Z,29.20
2019-02-22T11:57:07.776Z,26.23
2019-02-22T12:00:02.705Z,29.37
2019-02-22T12:02:34.603Z,27.87
2019-02-22T12:05:14.303Z,27.07
2019-02-22T12:08:03.625Z,25.73
2019-02-22T12:10:34.201Z,24.27
2019-02-22T12:13:08.437Z,26.47
2019-02-22T12:15:44.186Z,26.67
2019-02-22T12:18:26.343Z,25.13
2019-02-22T12:20:58.964Z,24.43
2019-02-22T12:23:34.405Z,23.30
2019-02-22T12:26:11.970Z,24.60
2019-02-22T12:29:10.678Z,23.43
2019-02-22T12:32:04.663Z,22.73
2019-02-22T12:34:49.090Z,22.90
2019-02-22T12:37:23.098Z,22.33
2019-02-22T12:40:01.558Z,21.17
2019-02-22T12:42:36.161Z,20.73
2019-02-22T12:45:16.478Z,18.50
2019-02-22T12:48:00.667Z,20.07
2019-02-22T12:50:31.923Z,19.73
2019-02-22T12:53:10.466Z,19.70
2019-02-22T12:55:40.259Z,19.77
2019-02-22T12:58:21.378Z,19.40
2019-02-22T13:00:54.893Z,19.27
2019-02-22T13:03:27.515Z,18.93
2019-02-22T13:06:01.929Z,19.03
2019-02-22T13:11:31.363Z,20.07
2019-02-22T13:14:10.791Z,18.17
2019-02-22T13:16:47.431Z,16.90
2019-02-22T13:19:35.871Z,16.00
2019-02-22T13:22:12.817Z,16.63
2019-02-22T13:24:51.868Z,15.20
2019-02-22T13:27:25.192Z,15.30
2019-02-22T13:30:05.068Z,14.97
2019-02-22T13:32:43.938Z,16.27
2019-02-22T13:35:24.933Z,14.43
2019-02-22T13:37:58.248Z,16.23
2019-02-22T13:40:41.940Z,16.70
2019-02-22T13:43:14.350Z,16.20
2019-02-22T13:45:51.183Z,15.33
2019-02-22T13:51:54.369Z,15.90
2019-02-22T13:54:32.319Z,16.67
2019-02-22T13:57:38.469Z,16.20
2019-02-22T14:00:24.619Z,15.70
2019-02-22T14:12:27.158Z,14.40
2019-02-22T14:14:56.662Z,15.35
2019-02-22T14:17:26.991Z,15.65
2019-02-22T14:20:00.668Z,15.10
2019-02-22T14:22:30.130Z,17.13
2019-02-22T14:25:01.247Z,16.40
2019-02-22T14:27:30.793Z,16.17
2019-02-22T14:30:04.246Z,15.60
2019-02-22T14:32:35.651Z,15.63
2019-02-22T14:35:06.332Z,17.60
2019-02-22T14:37:35.776Z,16.75
2019-02-22T14:40:09.070Z,15.93
2019-02-22T14:42:39.490Z,17.17
2019-02-22T14:45:11.637Z,17.20
2019-02-22T14:47:41.261Z,16.03
2019-02-22T14:50:18.508Z,16.70
2019-02-22T14:52:48.077Z,16.13
2019-02-22T14:55:19.391Z,16.70
2019-02-22T14:57:50.181Z,16.60
2019-02-22T15:07:03.200Z,18.17
2019-02-22T15:10:00.522Z,18.37
2019-02-22T15:13:05.540Z,19.67
2019-02-22T15:19:32.139Z,19.47
2019-02-22T15:22:57.982Z,20.57
2019-02-22T15:25:17.244Z,21.60
2019-02-22T15:28:10.057Z,22.17
2019-02-22T15:31:54.768Z,21.10
2019-02-22T15:33:42.591Z,20.63
2019-02-22T15:36:24.481Z,19.75
2019-02-22T15:38:58.763Z,20.93
2019-02-22T15:41:28.119Z,21.00
2019-02-22T15:43:57.590Z,21.20
2019-02-22T15:46:37.102Z,20.97
2019-02-22T15:49:14.903Z,21.60
2019-02-22T15:51:47.099Z,19.53
2019-02-22T15:54:43.888Z,17.80
2019-02-22T15:57:22.264Z,16.83
2019-02-22T15:59:57.843Z,17.23
2019-02-22T16:02:50.333Z,16.73
2019-02-22T16:05:12.440Z,16.60
2019-02-22T16:07:48.521Z,17.63
2019-02-22T16:10:22.916Z,17.50
2019-02-22T16:12:58.930Z,16.93
2019-02-22T16:15:33.279Z,18.27
2019-02-22T16:18:03.103Z,17.23
2019-02-22T16:20:44.273Z,18.63
2019-02-22T16:23:13.780Z,18.50
2019-02-22T16:25:43.516Z,18.43
2019-02-22T16:28:15.838Z,17.20
2019-02-22T16:30:50.709Z,17.85
2019-02-22T16:33:20.408Z,17.47
2019-02-22T16:35:58.059Z,18.40
2019-02-22T16:38:33.704Z,17.53
2019-02-22T16:41:08.602Z,18.27
2019-02-22T16:43:56.744Z,17.45
2019-02-22T16:46:36.124Z,18.57
2019-02-22T16:49:08.285Z,19.15
2019-02-22T16:51:48.176Z,17.87
2019-02-22T16:54:21.042Z,18.48
2019-02-22T16:56:53.509Z,18.70
2019-02-22T16:59:26.231Z,19.20
2019-02-22T17:02:14.944Z,18.77
2019-02-22T17:04:44.343Z,18.47
2019-02-22T17:07:13.732Z,18.43
2019-02-22T17:09:43.120Z,18.90
2019-02-22T17:12:12.572Z,17.92
2019-02-22T17:14:41.951Z,16.70
2019-02-22T17:17:11.346Z,15.77
2019-02-22T17:19:41.016Z,17.83
2019-02-22T17:22:10.561Z,17.15
2019-02-22T17:24:39.974Z,18.00
2019-02-22T17:27:09.383Z,17.40
2019-02-22T17:29:38.764Z,16.13
2019-02-22T17:32:08.161Z,16.83
2019-02-22T17:34:37.551Z,17.77
2019-02-22T17:37:06.959Z,17.40
2019-02-22T17:39:36.348Z,15.90
2019-02-22T17:42:05.740Z,15.95
2019-02-22T17:44:35.120Z,19.43
2019-02-22T17:47:06.499Z,19.20
2019-02-22T17:49:36.049Z,21.90
2019-02-22T17:52:05.529Z,24.50
2019-02-22T17:54:34.913Z,25.97
2019-02-22T17:57:04.659Z,27.20
2019-02-22T17:59:34.042Z,24.47
2019-02-22T18:02:03.444Z,24.53
2019-02-22T18:04:32.831Z,20.87
2019-02-22T18:07:02.225Z,19.77
2019-02-22T18:09:31.628Z,19.13
2019-02-22T18:12:01.013Z,19.63
2019-02-22T18:14:30.390Z,19.10
2019-02-22T18:17:07.958Z,17.80
2019-02-22T18:19:31.976Z,18.73
2019-02-22T18:22:01.473Z,19.63
2019-02-22T18:24:30.851Z,17.90
2019-02-22T18:27:00.255Z,19.70
2019-02-22T18:29:35.285Z,20.83
2019-02-22T18:32:00.773Z,22.47
2019-02-22T18:34:30.151Z,23.50
2019-02-22T18:36:59.539Z,22.77
2019-02-22T18:39:28.917Z,24.17
2019-02-22T18:41:58.326Z,24.80
2019-02-22T18:44:27.810Z,23.87
2019-02-22T18:46:57.227Z,21.80
2019-02-22T18:49:26.970Z,22.53
2019-02-22T18:51:56.364Z,22.90
2019-02-22T18:54:25.738Z,23.53
2019-02-22T18:56:55.148Z,25.30
2019-02-22T18:59:24.529Z,25.47
2019-02-22T19:01:53.927Z,26.90
2019-02-22T19:04:23.327Z,25.70
2019-02-22T19:06:52.714Z,20.82
2019-02-22T19:09:22.538Z,23.53
2019-02-22T19:11:51.920Z,26.77
2019-02-22T19:14:21.313Z,24.23
2019-02-22T19:30:59.447Z,26.47
2019-02-22T19:34:18.398Z,27.10
2019-02-22T19:45:50.016Z,28.60
2019-02-22T19:52:03.623Z,32.40
2019-02-22T19:59:43.460Z,30.15
2019-02-22T20:05:17.254Z,35.03
2019-02-22T20:07:46.991Z,32.13
2019-02-22T20:10:23.852Z,32.25
2019-02-22T20:12:53.225Z,30.20
2019-02-22T20:15:22.631Z,29.05
2019-02-22T20:17:54.381Z,24.90
2019-02-22T20:20:23.410Z,21.93
2019-02-22T20:22:52.807Z,23.13
2019-02-22T20:25:22.485Z,21.33
2019-02-22T20:27:51.943Z,21.23
2019-02-22T20:30:21.526Z,21.00
2019-02-22T20:32:50.938Z,19.17
2019-02-22T20:35:26.732Z,19.17
2019-02-22T20:37:56.402Z,18.25
2019-02-22T20:40:26.041Z,20.60
2019-02-22T20:42:55.422Z,22.32
2019-02-22T20:45:24.817Z,24.53
2019-02-22T20:48:04.662Z,23.90
2019-02-22T20:50:26.505Z,23.62
2019-02-22T20:52:56.226Z,23.20
2019-02-22T20:55:25.621Z,23.20
2019-02-22T20:57:55.003Z,23.77
2019-02-22T21:00:29.433Z,25.40
2019-02-22T21:02:59.145Z,24.80
2019-02-22T21:05:28.534Z,22.97
2019-02-22T21:07:58.290Z,22.13
2019-02-22T21:10:27.681Z,22.37
2019-02-22T21:12:57.367Z,23.23
2019-02-22T21:15:26.756Z,22.60
2019-02-22T21:17:56.157Z,24.03
2019-02-22T21:20:25.790Z,25.87
2019-02-22T21:22:55.168Z,28.92
2019-02-22T21:25:24.561Z,28.20
2019-02-22T21:27:53.953Z,27.63
2019-02-22T21:30:23.414Z,27.13
2019-02-22T21:32:52.814Z,26.62
2019-02-22T21:35:22.305Z,25.30
2019-02-22T21:37:52.455Z,25.13
2019-02-22T21:40:22.646Z,26.75
2019-02-22T21:42:52.071Z,26.57
2019-02-22T21:45:21.474Z,27.00
2019-02-22T21:47:55.473Z,23.87
2019-02-22T21:50:22.323Z,25.27
2019-02-22T21:52:51.696Z,26.90
2019-02-22T21:55:21.162Z,27.30
2019-02-22T21:57:50.543Z,26.10
2019-02-22T22:00:28.103Z,27.27
2019-02-22T22:03:00.171Z,25.10
2019-02-22T22:05:29.552Z,26.07
2019-02-22T22:07:59.040Z,23.20
2019-02-22T22:10:28.498Z,24.10
2019-02-22T22:12:57.880Z,25.00
2019-02-22T22:15:27.269Z,24.67
2019-02-22T22:17:56.697Z,24.50
2019-02-22T22:20:26.081Z,26.13
2019-02-22T22:22:55.783Z,22.30
2019-02-22T22:25:25.176Z,23.97
2019-02-22T22:27:54.555Z,25.07
2019-02-22T22:30:23.933Z,26.37
2019-02-22T22:32:53.329Z,26.20
2019-02-22T22:35:22.703Z,26.70
2019-02-22T22:37:52.361Z,22.97
2019-02-22T22:42:51.339Z,24.97
2019-02-22T22:45:20.757Z,27.50
2019-02-22T22:47:50.134Z,28.03
2019-02-22T22:50:19.488Z,27.40
2019-02-22T22:52:48.872Z,26.85
2019-02-22T22:55:18.246Z,26.45
2019-02-22T22:57:47.626Z,25.85
2019-02-22T23:00:47.573Z,24.53
2019-02-22T23:03:17.142Z,28.50
2019-02-22T23:05:46.513Z,29.23
2019-02-22T23:08:15.908Z,28.03
2019-02-22T23:10:45.351Z,25.00
2019-02-22T23:13:15.016Z,26.55
2019-02-22T23:15:44.752Z,27.90
2019-02-22T23:18:14.159Z,27.00
2019-02-22T23:20:45.716Z,26.63
2019-02-22T23:23:17.099Z,26.90
2019-02-22T23:25:46.689Z,26.87
2019-02-22T23:28:16.182Z,25.47
2019-02-22T23:30:45.607Z,25.00
2019-02-22T23:33:15.176Z,24.67
2019-02-22T23:35:46.230Z,24.33
2019-02-22T23:38:15.643Z,24.20
2019-02-22T23:40:45.099Z,22.87
2019-02-22T23:43:14.589Z,22.60
2019-02-22T23:45:44.039Z,23.90
2019-02-22T23:48:13.479Z,24.03
2019-02-22T23:50:42.811Z,24.07
2019-02-22T23:53:31.530Z,22.85
2019-02-22T23:56:00.905Z,25.30
2019-02-22T23:58:30.285Z,26.07
